sensor_id;sensor_type;location;lat;lon;timestamp;temperature;humidity
4356;DHT22;64374;51.482;7.408;2023-02-19T00:00:04;11.10;99.90
4356;DHT22;64374;51.482;7.408;2023-02-19T00:02:41;11.10;99.90
4356;DHT22;64374;51.482;7.408;2023-02-19T00:05:11;11.00;99.90
4356;DHT22;64374;51.482;7.408;2023-02-19T00:07:39;11.10;99.90
4356;DHT22;64374;51.482;7.408;2023-02-19T00:10:10;11.00;99.90
4356;DHT22;64374;51.482;7.408;2023-02-19T00:12:40;11.10;99.90
4356;DHT22;64374;51.482;7.408;2023-02-19T00:15:08;11.20;99.90
4356;DHT22;64374;51.482;7.408;2023-02-19T00:17:37;11.20;99.90
4356;DHT22;64374;51.482;7.408;2023-02-19T00:20:07;11.20;99.90
4356;DHT22;64374;51.482;7.408;2023-02-19T00:22:36;11.20;99.90
4356;DHT22;64374;51.482;7.408;2023-02-19T00:25:05;11.20;99.90
4356;DHT22;64374;51.482;7.408;2023-02-19T00:27:33;11.10;99.90
4356;DHT22;64374;51.482;7.408;2023-02-19T00:30:02;11.10;99.90
4356;DHT22;64374;51.482;7.408;2023-02-19T00:32:30;11.10;99.90
4356;DHT22;64374;51.482;7.408;2023-02-19T00:35:00;11.20;99.90
4356;DHT22;64374;51.482;7.408;2023-02-19T00:37:29;11.30;99.90
4356;DHT22;64374;51.482;7.408;2023-02-19T00:39:57;11.20;99.90
4356;DHT22;64374;51.482;7.408;2023-02-19T00:42:25;11.30;99.90
4356;DHT22;64374;51.482;7.408;2023-02-19T00:44:53;11.20;99.90
4356;DHT22;64374;51.482;7.408;2023-02-19T00:47:23;11.10;99.90
4356;DHT22;64374;51.482;7.408;2023-02-19T00:49:54;11.20;99.90
4356;DHT22;64374;51.482;7.408;2023-02-19T00:52:22;11.10;99.90
4356;DHT22;64374;51.482;7.408;2023-02-19T00:54:52;11.20;99.90
4356;DHT22;64374;51.482;7.408;2023-02-19T00:57:41;11.20;99.90
4356;DHT22;64374;51.482;7.408;2023-02-19T01:00:11;11.00;99.90
4356;DHT22;64374;51.482;7.408;2023-02-19T01:02:41;11.30;99.90
4356;DHT22;64374;51.482;7.408;2023-02-19T01:05:11;11.20;99.90
4356;DHT22;64374;51.482;7.408;2023-02-19T01:07:40;11.20;99.90
4356;DHT22;64374;51.482;7.408;2023-02-19T01:10:09;11.00;99.90
4356;DHT22;64374;51.482;7.408;2023-02-19T01:12:38;11.10;99.90
4356;DHT22;64374;51.482;7.408;2023-02-19T01:15:07;11.00;99.90
4356;DHT22;64374;51.482;7.408;2023-02-19T01:17:36;11.00;99.90
4356;DHT22;64374;51.482;7.408;2023-02-19T01:20:06;11.20;99.90
4356;DHT22;64374;51.482;7.408;2023-02-19T01:22:34;11.10;99.90
4356;DHT22;64374;51.482;7.408;2023-02-19T01:25:05;11.20;99.90
4356;DHT22;64374;51.482;7.408;2023-02-19T01:27:33;11.20;99.90
4356;DHT22;64374;51.482;7.408;2023-02-19T01:30:02;11.10;99.90
4356;DHT22;64374;51.482;7.408;2023-02-19T01:32:31;11.20;99.90
4356;DHT22;64374;51.482;7.408;2023-02-19T01:34:59;11.40;99.90
4356;DHT22;64374;51.482;7.408;2023-02-19T01:37:29;11.40;99.90
4356;DHT22;64374;51.482;7.408;2023-02-19T01:39:57;11.50;99.90
4356;DHT22;64374;51.482;7.408;2023-02-19T01:42:26;11.10;99.90
4356;DHT22;64374;51.482;7.408;2023-02-19T01:48:06;11.00;99.90
4356;DHT22;64374;51.482;7.408;2023-02-19T01:50:40;11.10;99.90
4356;DHT22;64374;51.482;7.408;2023-02-19T01:53:13;11.20;99.90
4356;DHT22;64374;51.482;7.408;2023-02-19T01:55:44;11.30;99.90
4356;DHT22;64374;51.482;7.408;2023-02-19T01:58:14;11.20;99.90
4356;DHT22;64374;51.482;7.408;2023-02-19T02:00:42;11.10;99.90
4356;DHT22;64374;51.482;7.408;2023-02-19T02:03:11;11.20;99.90
4356;DHT22;64374;51.482;7.408;2023-02-19T02:05:47;11.30;99.90
4356;DHT22;64374;51.482;7.408;2023-02-19T02:08:20;11.30;99.90
4356;DHT22;64374;51.482;7.408;2023-02-19T02:11:03;11.30;99.90
4356;DHT22;64374;51.482;7.408;2023-02-19T02:13:32;11.20;99.90
4356;DHT22;64374;51.482;7.408;2023-02-19T02:16:19;11.30;99.90
4356;DHT22;64374;51.482;7.408;2023-02-19T02:19:00;11.20;99.90
4356;DHT22;64374;51.482;7.408;2023-02-19T02:21:50;11.30;99.90
4356;DHT22;64374;51.482;7.408;2023-02-19T02:24:49;11.50;99.90
4356;DHT22;64374;51.482;7.408;2023-02-19T02:27:37;11.40;99.90
4356;DHT22;64374;51.482;7.408;2023-02-19T02:33:20;11.60;99.90
4356;DHT22;64374;51.482;7.408;2023-02-19T02:35:55;11.70;99.90
4356;DHT22;64374;51.482;7.408;2023-02-19T02:38:28;11.80;99.90
4356;DHT22;64374;51.482;7.408;2023-02-19T02:40:58;11.50;99.90
4356;DHT22;64374;51.482;7.408;2023-02-19T02:43:28;11.60;99.90
4356;DHT22;64374;51.482;7.408;2023-02-19T02:45:58;11.30;99.90
4356;DHT22;64374;51.482;7.408;2023-02-19T02:48:34;11.20;99.90
4356;DHT22;64374;51.482;7.408;2023-02-19T02:51:09;11.30;99.90
4356;DHT22;64374;51.482;7.408;2023-02-19T02:53:48;11.30;99.90
4356;DHT22;64374;51.482;7.408;2023-02-19T02:56:40;11.30;99.90
4356;DHT22;64374;51.482;7.408;2023-02-19T02:59:11;11.00;99.90
4356;DHT22;64374;51.482;7.408;2023-02-19T03:01:46;11.10;99.90
4356;DHT22;64374;51.482;7.408;2023-02-19T03:04:37;11.20;99.90
4356;DHT22;64374;51.482;7.408;2023-02-19T03:07:35;11.20;99.90
4356;DHT22;64374;51.482;7.408;2023-02-19T03:10:07;11.10;99.90
4356;DHT22;64374;51.482;7.408;2023-02-19T03:12:39;11.20;99.90
4356;DHT22;64374;51.482;7.408;2023-02-19T03:15:27;11.20;99.90
4356;DHT22;64374;51.482;7.408;2023-02-19T03:18:18;11.20;99.90
4356;DHT22;64374;51.482;7.408;2023-02-19T03:21:07;11.10;99.90
4356;DHT22;64374;51.482;7.408;2023-02-19T03:23:39;11.20;99.90
4356;DHT22;64374;51.482;7.408;2023-02-19T03:26:27;11.40;99.90
4356;DHT22;64374;51.482;7.408;2023-02-19T03:28:57;11.40;99.90
4356;DHT22;64374;51.482;7.408;2023-02-19T03:31:45;11.30;99.90
4356;DHT22;64374;51.482;7.408;2023-02-19T03:34:21;11.10;99.90
4356;DHT22;64374;51.482;7.408;2023-02-19T03:36:57;11.20;99.90
4356;DHT22;64374;51.482;7.408;2023-02-19T03:39:28;11.20;99.90
4356;DHT22;64374;51.482;7.408;2023-02-19T03:42:00;11.20;99.90
4356;DHT22;64374;51.482;7.408;2023-02-19T03:44:39;11.10;99.90
4356;DHT22;64374;51.482;7.408;2023-02-19T03:47:14;11.10;99.90
4356;DHT22;64374;51.482;7.408;2023-02-19T03:49:49;11.10;99.90
4356;DHT22;64374;51.482;7.408;2023-02-19T03:52:24;11.10;99.90
4356;DHT22;64374;51.482;7.408;2023-02-19T03:55:02;11.10;99.90
4356;DHT22;64374;51.482;7.408;2023-02-19T03:57:38;11.10;99.90
4356;DHT22;64374;51.482;7.408;2023-02-19T04:00:12;10.90;99.90
4356;DHT22;64374;51.482;7.408;2023-02-19T04:02:46;11.00;99.90
4356;DHT22;64374;51.482;7.408;2023-02-19T04:05:19;11.00;99.90
4356;DHT22;64374;51.482;7.408;2023-02-19T04:07:51;10.80;99.90
4356;DHT22;64374;51.482;7.408;2023-02-19T04:10:27;10.90;99.90
4356;DHT22;64374;51.482;7.408;2023-02-19T04:13:01;10.80;99.90
4356;DHT22;64374;51.482;7.408;2023-02-19T04:15:33;10.80;99.90
4356;DHT22;64374;51.482;7.408;2023-02-19T04:18:04;10.90;99.90
4356;DHT22;64374;51.482;7.408;2023-02-19T04:20:39;10.80;99.90
4356;DHT22;64374;51.482;7.408;2023-02-19T04:23:10;10.90;99.90
4356;DHT22;64374;51.482;7.408;2023-02-19T04:25:42;11.10;99.90
4356;DHT22;64374;51.482;7.408;2023-02-19T04:28:13;11.10;99.90
4356;DHT22;64374;51.482;7.408;2023-02-19T04:30:44;11.00;99.90
4356;DHT22;64374;51.482;7.408;2023-02-19T04:33:12;11.20;99.90
4356;DHT22;64374;51.482;7.408;2023-02-19T04:35:42;11.10;99.90
4356;DHT22;64374;51.482;7.408;2023-02-19T04:38:11;11.00;99.90
4356;DHT22;64374;51.482;7.408;2023-02-19T04:40:40;10.90;99.90
4356;DHT22;64374;51.482;7.408;2023-02-19T04:43:08;11.00;99.90
4356;DHT22;64374;51.482;7.408;2023-02-19T04:45:37;10.90;99.90
4356;DHT22;64374;51.482;7.408;2023-02-19T04:48:06;11.00;99.90
4356;DHT22;64374;51.482;7.408;2023-02-19T04:50:36;11.00;99.90
4356;DHT22;64374;51.482;7.408;2023-02-19T04:53:06;10.90;99.90
4356;DHT22;64374;51.482;7.408;2023-02-19T04:55:36;11.00;99.90
4356;DHT22;64374;51.482;7.408;2023-02-19T04:58:07;11.00;99.90
4356;DHT22;64374;51.482;7.408;2023-02-19T05:00:35;11.10;99.90
4356;DHT22;64374;51.482;7.408;2023-02-19T05:03:03;11.00;99.90
4356;DHT22;64374;51.482;7.408;2023-02-19T05:05:34;11.10;99.90
4356;DHT22;64374;51.482;7.408;2023-02-19T05:08:02;11.20;99.90
4356;DHT22;64374;51.482;7.408;2023-02-19T05:10:32;11.10;99.90
4356;DHT22;64374;51.482;7.408;2023-02-19T05:13:01;11.10;99.90
4356;DHT22;64374;51.482;7.408;2023-02-19T05:15:29;11.00;99.90
4356;DHT22;64374;51.482;7.408;2023-02-19T05:17:58;11.00;99.90
4356;DHT22;64374;51.482;7.408;2023-02-19T05:20:27;11.10;99.90
4356;DHT22;64374;51.482;7.408;2023-02-19T05:22:55;11.10;99.90
4356;DHT22;64374;51.482;7.408;2023-02-19T05:25:24;11.10;99.90
4356;DHT22;64374;51.482;7.408;2023-02-19T05:27:53;11.00;99.90
4356;DHT22;64374;51.482;7.408;2023-02-19T05:30:43;11.00;99.90
4356;DHT22;64374;51.482;7.408;2023-02-19T05:33:12;11.10;99.90
4356;DHT22;64374;51.482;7.408;2023-02-19T05:35:42;11.10;99.90
4356;DHT22;64374;51.482;7.408;2023-02-19T05:38:12;11.10;99.90
4356;DHT22;64374;51.482;7.408;2023-02-19T05:40:40;10.90;99.90
4356;DHT22;64374;51.482;7.408;2023-02-19T05:43:11;11.00;99.90
4356;DHT22;64374;51.482;7.408;2023-02-19T05:45:40;11.10;99.90
4356;DHT22;64374;51.482;7.408;2023-02-19T05:48:09;11.10;99.90
4356;DHT22;64374;51.482;7.408;2023-02-19T05:50:38;11.00;99.90
4356;DHT22;64374;51.482;7.408;2023-02-19T05:53:12;11.10;99.90
4356;DHT22;64374;51.482;7.408;2023-02-19T05:55:40;11.00;99.90
4356;DHT22;64374;51.482;7.408;2023-02-19T05:58:10;11.00;99.90
4356;DHT22;64374;51.482;7.408;2023-02-19T06:00:39;11.10;99.90
4356;DHT22;64374;51.482;7.408;2023-02-19T06:03:09;11.00;99.90
4356;DHT22;64374;51.482;7.408;2023-02-19T06:05:38;11.10;99.90
4356;DHT22;64374;51.482;7.408;2023-02-19T06:08:06;11.10;99.90
4356;DHT22;64374;51.482;7.408;2023-02-19T06:10:37;11.00;99.90
4356;DHT22;64374;51.482;7.408;2023-02-19T06:13:08;10.90;99.90
4356;DHT22;64374;51.482;7.408;2023-02-19T06:15:38;11.10;99.90
4356;DHT22;64374;51.482;7.408;2023-02-19T06:18:06;11.10;99.90
4356;DHT22;64374;51.482;7.408;2023-02-19T06:20:35;10.90;99.90
4356;DHT22;64374;51.482;7.408;2023-02-19T06:23:03;10.90;99.90
4356;DHT22;64374;51.482;7.408;2023-02-19T06:25:34;10.90;99.90
4356;DHT22;64374;51.482;7.408;2023-02-19T06:28:02;11.00;99.90
4356;DHT22;64374;51.482;7.408;2023-02-19T06:30:32;11.00;99.90
4356;DHT22;64374;51.482;7.408;2023-02-19T06:33:03;10.90;99.90
4356;DHT22;64374;51.482;7.408;2023-02-19T06:35:31;10.90;99.90
4356;DHT22;64374;51.482;7.408;2023-02-19T06:38:00;10.90;99.90
4356;DHT22;64374;51.482;7.408;2023-02-19T06:40:29;11.00;99.90
4356;DHT22;64374;51.482;7.408;2023-02-19T06:42:57;10.90;99.90
4356;DHT22;64374;51.482;7.408;2023-02-19T06:45:26;10.90;99.90
4356;DHT22;64374;51.482;7.408;2023-02-19T06:47:54;10.80;99.90
4356;DHT22;64374;51.482;7.408;2023-02-19T06:50:24;11.00;99.90
4356;DHT22;64374;51.482;7.408;2023-02-19T06:52:52;11.20;99.90
4356;DHT22;64374;51.482;7.408;2023-02-19T06:55:20;11.00;99.90
4356;DHT22;64374;51.482;7.408;2023-02-19T06:57:48;11.00;99.90
4356;DHT22;64374;51.482;7.408;2023-02-19T07:00:17;10.80;99.90
4356;DHT22;64374;51.482;7.408;2023-02-19T07:02:45;10.90;99.90
4356;DHT22;64374;51.482;7.408;2023-02-19T07:05:14;11.00;99.90
4356;DHT22;64374;51.482;7.408;2023-02-19T07:07:45;11.10;99.90
4356;DHT22;64374;51.482;7.408;2023-02-19T07:10:14;11.00;99.90
4356;DHT22;64374;51.482;7.408;2023-02-19T07:12:43;11.00;99.90
4356;DHT22;64374;51.482;7.408;2023-02-19T07:15:12;10.80;99.90
4356;DHT22;64374;51.482;7.408;2023-02-19T07:17:40;10.70;99.90
4356;DHT22;64374;51.482;7.408;2023-02-19T07:20:10;10.80;99.90
4356;DHT22;64374;51.482;7.408;2023-02-19T07:22:38;10.90;99.90
4356;DHT22;64374;51.482;7.408;2023-02-19T07:25:08;10.80;99.90
4356;DHT22;64374;51.482;7.408;2023-02-19T07:27:36;10.80;99.90
4356;DHT22;64374;51.482;7.408;2023-02-19T07:30:05;10.80;99.90
4356;DHT22;64374;51.482;7.408;2023-02-19T07:32:34;10.90;99.90
4356;DHT22;64374;51.482;7.408;2023-02-19T07:35:03;10.80;99.90
4356;DHT22;64374;51.482;7.408;2023-02-19T07:37:31;10.90;99.90
4356;DHT22;64374;51.482;7.408;2023-02-19T07:40:00;10.90;99.90
4356;DHT22;64374;51.482;7.408;2023-02-19T07:42:29;10.80;99.90
4356;DHT22;64374;51.482;7.408;2023-02-19T07:44:59;11.00;99.90
4356;DHT22;64374;51.482;7.408;2023-02-19T07:47:28;10.80;99.90
4356;DHT22;64374;51.482;7.408;2023-02-19T07:49:56;10.90;99.90
4356;DHT22;64374;51.482;7.408;2023-02-19T07:52:25;11.10;99.90
4356;DHT22;64374;51.482;7.408;2023-02-19T07:54:54;11.00;99.90
4356;DHT22;64374;51.482;7.408;2023-02-19T07:57:22;10.90;99.90
4356;DHT22;64374;51.482;7.408;2023-02-19T07:59:52;11.00;99.90
4356;DHT22;64374;51.482;7.408;2023-02-19T08:02:22;11.00;99.90
4356;DHT22;64374;51.482;7.408;2023-02-19T08:05:08;11.00;99.90
4356;DHT22;64374;51.482;7.408;2023-02-19T08:07:37;11.10;99.90
4356;DHT22;64374;51.482;7.408;2023-02-19T08:10:06;11.20;99.90
4356;DHT22;64374;51.482;7.408;2023-02-19T08:12:56;11.00;99.90
4356;DHT22;64374;51.482;7.408;2023-02-19T08:15:46;11.10;99.90
4356;DHT22;64374;51.482;7.408;2023-02-19T08:18:15;11.10;99.90
4356;DHT22;64374;51.482;7.408;2023-02-19T08:20:44;11.00;99.90
4356;DHT22;64374;51.482;7.408;2023-02-19T08:23:13;11.00;99.90
4356;DHT22;64374;51.482;7.408;2023-02-19T08:25:41;11.00;99.90
4356;DHT22;64374;51.482;7.408;2023-02-19T08:28:10;11.10;99.90
4356;DHT22;64374;51.482;7.408;2023-02-19T08:30:42;11.00;99.90
4356;DHT22;64374;51.482;7.408;2023-02-19T08:33:15;10.70;99.90
4356;DHT22;64374;51.482;7.408;2023-02-19T08:35:44;10.80;99.90
4356;DHT22;64374;51.482;7.408;2023-02-19T08:38:13;10.80;99.90
4356;DHT22;64374;51.482;7.408;2023-02-19T08:40:43;10.90;99.90
4356;DHT22;64374;51.482;7.408;2023-02-19T08:43:12;11.00;99.90
4356;DHT22;64374;51.482;7.408;2023-02-19T08:45:44;10.90;99.90
4356;DHT22;64374;51.482;7.408;2023-02-19T08:48:16;10.70;99.90
4356;DHT22;64374;51.482;7.408;2023-02-19T08:50:44;10.80;99.90
4356;DHT22;64374;51.482;7.408;2023-02-19T08:53:12;10.90;99.90
4356;DHT22;64374;51.482;7.408;2023-02-19T08:55:41;10.80;99.90
4356;DHT22;64374;51.482;7.408;2023-02-19T08:58:10;11.10;99.90
4356;DHT22;64374;51.482;7.408;2023-02-19T09:00:38;11.20;99.90
4356;DHT22;64374;51.482;7.408;2023-02-19T09:03:06;11.00;99.90
4356;DHT22;64374;51.482;7.408;2023-02-19T09:05:37;10.80;99.90
4356;DHT22;64374;51.482;7.408;2023-02-19T09:08:06;11.00;99.90
4356;DHT22;64374;51.482;7.408;2023-02-19T09:10:34;11.00;99.90
4356;DHT22;64374;51.482;7.408;2023-02-19T09:13:03;10.90;99.90
4356;DHT22;64374;51.482;7.408;2023-02-19T09:15:32;10.90;99.90
4356;DHT22;64374;51.482;7.408;2023-02-19T09:18:00;11.00;99.90
4356;DHT22;64374;51.482;7.408;2023-02-19T09:20:29;11.10;99.90
4356;DHT22;64374;51.482;7.408;2023-02-19T09:22:59;11.10;99.90
4356;DHT22;64374;51.482;7.408;2023-02-19T09:25:27;11.10;99.90
4356;DHT22;64374;51.482;7.408;2023-02-19T09:27:56;11.20;99.90
4356;DHT22;64374;51.482;7.408;2023-02-19T09:30:24;11.10;99.90
4356;DHT22;64374;51.482;7.408;2023-02-19T09:32:52;11.10;99.90
4356;DHT22;64374;51.482;7.408;2023-02-19T09:35:20;11.00;99.90
4356;DHT22;64374;51.482;7.408;2023-02-19T09:37:49;10.90;99.90
4356;DHT22;64374;51.482;7.408;2023-02-19T09:40:19;10.90;99.90
4356;DHT22;64374;51.482;7.408;2023-02-19T09:42:50;11.10;99.90
4356;DHT22;64374;51.482;7.408;2023-02-19T09:45:21;11.00;99.90
4356;DHT22;64374;51.482;7.408;2023-02-19T09:47:53;11.00;99.90
4356;DHT22;64374;51.482;7.408;2023-02-19T09:50:30;11.00;99.90
4356;DHT22;64374;51.482;7.408;2023-02-19T09:53:03;11.10;99.90
4356;DHT22;64374;51.482;7.408;2023-02-19T09:55:35;11.10;99.90
4356;DHT22;64374;51.482;7.408;2023-02-19T09:58:18;11.10;99.90
4356;DHT22;64374;51.482;7.408;2023-02-19T10:00:49;11.10;99.90
4356;DHT22;64374;51.482;7.408;2023-02-19T10:03:22;10.90;99.90
4356;DHT22;64374;51.482;7.408;2023-02-19T10:05:52;11.00;99.90
4356;DHT22;64374;51.482;7.408;2023-02-19T10:08:22;11.10;99.90
4356;DHT22;64374;51.482;7.408;2023-02-19T10:10:52;11.20;99.90
4356;DHT22;64374;51.482;7.408;2023-02-19T10:13:29;11.10;99.90
4356;DHT22;64374;51.482;7.408;2023-02-19T10:16:01;11.20;99.90
4356;DHT22;64374;51.482;7.408;2023-02-19T10:18:37;11.20;99.90
4356;DHT22;64374;51.482;7.408;2023-02-19T10:21:06;11.20;99.90
4356;DHT22;64374;51.482;7.408;2023-02-19T10:23:35;11.40;99.90
4356;DHT22;64374;51.482;7.408;2023-02-19T10:26:05;11.40;99.90
4356;DHT22;64374;51.482;7.408;2023-02-19T10:28:35;11.40;99.90
4356;DHT22;64374;51.482;7.408;2023-02-19T10:31:06;11.40;99.90
4356;DHT22;64374;51.482;7.408;2023-02-19T10:33:48;11.20;99.90
4356;DHT22;64374;51.482;7.408;2023-02-19T10:36:24;11.20;99.90
4356;DHT22;64374;51.482;7.408;2023-02-19T10:39:00;11.10;99.90
4356;DHT22;64374;51.482;7.408;2023-02-19T10:41:30;11.20;99.90
4356;DHT22;64374;51.482;7.408;2023-02-19T10:44:03;11.50;99.90
4356;DHT22;64374;51.482;7.408;2023-02-19T10:46:34;11.60;99.90
4356;DHT22;64374;51.482;7.408;2023-02-19T10:49:18;11.50;99.90
4356;DHT22;64374;51.482;7.408;2023-02-19T10:51:51;11.50;99.90
4356;DHT22;64374;51.482;7.408;2023-02-19T10:54:25;11.60;99.90
4356;DHT22;64374;51.482;7.408;2023-02-19T10:57:15;11.60;99.90
4356;DHT22;64374;51.482;7.408;2023-02-19T10:59:53;11.60;99.90
4356;DHT22;64374;51.482;7.408;2023-02-19T11:02:24;11.50;99.90
4356;DHT22;64374;51.482;7.408;2023-02-19T11:05:15;11.40;99.90
4356;DHT22;64374;51.482;7.408;2023-02-19T11:07:47;11.50;99.90
4356;DHT22;64374;51.482;7.408;2023-02-19T11:10:24;11.70;99.90
4356;DHT22;64374;51.482;7.408;2023-02-19T11:12:57;11.40;99.90
4356;DHT22;64374;51.482;7.408;2023-02-19T11:15:28;11.40;99.90
4356;DHT22;64374;51.482;7.408;2023-02-19T11:18:01;11.60;99.90
4356;DHT22;64374;51.482;7.408;2023-02-19T11:20:30;11.60;99.90
4356;DHT22;64374;51.482;7.408;2023-02-19T11:23:00;11.60;99.90
4356;DHT22;64374;51.482;7.408;2023-02-19T11:25:32;11.60;99.90
4356;DHT22;64374;51.482;7.408;2023-02-19T11:28:04;11.60;99.90
4356;DHT22;64374;51.482;7.408;2023-02-19T11:30:39;11.80;99.90
4356;DHT22;64374;51.482;7.408;2023-02-19T11:33:26;11.60;99.90
4356;DHT22;64374;51.482;7.408;2023-02-19T11:36:22;11.60;99.90
4356;DHT22;64374;51.482;7.408;2023-02-19T11:38:56;11.90;99.90
4356;DHT22;64374;51.482;7.408;2023-02-19T11:41:41;11.90;99.90
4356;DHT22;64374;51.482;7.408;2023-02-19T11:44:23;12.10;99.90
4356;DHT22;64374;51.482;7.408;2023-02-19T11:47:04;12.20;99.90
4356;DHT22;64374;51.482;7.408;2023-02-19T11:49:42;12.10;99.90
4356;DHT22;64374;51.482;7.408;2023-02-19T11:52:25;11.90;99.90
4356;DHT22;64374;51.482;7.408;2023-02-19T11:55:20;11.90;99.90
4356;DHT22;64374;51.482;7.408;2023-02-19T11:58:06;11.80;99.90
4356;DHT22;64374;51.482;7.408;2023-02-19T12:00:49;11.70;99.90
4356;DHT22;64374;51.482;7.408;2023-02-19T12:03:40;11.90;99.90
4356;DHT22;64374;51.482;7.408;2023-02-19T12:06:21;11.80;99.90
4356;DHT22;64374;51.482;7.408;2023-02-19T12:09:09;11.90;99.90
4356;DHT22;64374;51.482;7.408;2023-02-19T12:11:48;12.10;99.90
4356;DHT22;64374;51.482;7.408;2023-02-19T12:14:47;12.00;99.90
4356;DHT22;64374;51.482;7.408;2023-02-19T12:17:37;11.80;99.90
4356;DHT22;64374;51.482;7.408;2023-02-19T12:20:18;11.90;99.90
4356;DHT22;64374;51.482;7.408;2023-02-19T12:22:57;12.30;99.90
4356;DHT22;64374;51.482;7.408;2023-02-19T12:25:38;12.10;99.90
4356;DHT22;64374;51.482;7.408;2023-02-19T12:28:43;12.50;99.90
4356;DHT22;64374;51.482;7.408;2023-02-19T12:31:30;12.50;99.90
4356;DHT22;64374;51.482;7.408;2023-02-19T12:34:17;12.60;99.90
4356;DHT22;64374;51.482;7.408;2023-02-19T12:36:57;12.40;99.90
4356;DHT22;64374;51.482;7.408;2023-02-19T12:39:32;12.30;99.90
4356;DHT22;64374;51.482;7.408;2023-02-19T12:42:13;12.20;99.90
4356;DHT22;64374;51.482;7.408;2023-02-19T12:44:46;12.50;99.90
4356;DHT22;64374;51.482;7.408;2023-02-19T12:47:21;12.40;99.90
4356;DHT22;64374;51.482;7.408;2023-02-19T12:50:01;12.50;99.90
4356;DHT22;64374;51.482;7.408;2023-02-19T12:52:33;12.30;99.90
4356;DHT22;64374;51.482;7.408;2023-02-19T12:55:16;12.20;99.90
4356;DHT22;64374;51.482;7.408;2023-02-19T12:57:50;12.40;99.90
4356;DHT22;64374;51.482;7.408;2023-02-19T13:00:27;12.50;99.90
4356;DHT22;64374;51.482;7.408;2023-02-19T13:03:03;12.80;99.90
4356;DHT22;64374;51.482;7.408;2023-02-19T13:05:43;13.10;99.90
4356;DHT22;64374;51.482;7.408;2023-02-19T13:08:18;13.30;99.90
4356;DHT22;64374;51.482;7.408;2023-02-19T13:10:52;13.10;99.90
4356;DHT22;64374;51.482;7.408;2023-02-19T13:13:49;13.00;99.90
4356;DHT22;64374;51.482;7.408;2023-02-19T13:16:20;13.10;99.90
4356;DHT22;64374;51.482;7.408;2023-02-19T13:18:52;13.30;99.90
4356;DHT22;64374;51.482;7.408;2023-02-19T13:21:25;13.40;99.90
4356;DHT22;64374;51.482;7.408;2023-02-19T13:24:24;13.40;99.90
4356;DHT22;64374;51.482;7.408;2023-02-19T13:27:03;13.40;99.90
4356;DHT22;64374;51.482;7.408;2023-02-19T13:29:51;13.50;99.90
4356;DHT22;64374;51.482;7.408;2023-02-19T13:32:42;13.60;99.90
4356;DHT22;64374;51.482;7.408;2023-02-19T13:35:25;13.60;99.90
4356;DHT22;64374;51.482;7.408;2023-02-19T13:38:00;13.40;99.90
4356;DHT22;64374;51.482;7.408;2023-02-19T13:40:31;13.20;99.90
4356;DHT22;64374;51.482;7.408;2023-02-19T13:43:02;13.40;99.90
4356;DHT22;64374;51.482;7.408;2023-02-19T13:45:34;13.40;99.90
4356;DHT22;64374;51.482;7.408;2023-02-19T13:48:23;13.50;99.90
4356;DHT22;64374;51.482;7.408;2023-02-19T13:51:46;13.40;99.90
4356;DHT22;64374;51.482;7.408;2023-02-19T13:54:23;13.50;99.90
4356;DHT22;64374;51.482;7.408;2023-02-19T13:57:35;13.20;99.90
4356;DHT22;64374;51.482;7.408;2023-02-19T14:00:46;12.90;99.90
4356;DHT22;64374;51.482;7.408;2023-02-19T14:03:30;12.90;99.90
4356;DHT22;64374;51.482;7.408;2023-02-19T14:06:08;12.80;99.90
4356;DHT22;64374;51.482;7.408;2023-02-19T14:08:49;12.80;99.90
4356;DHT22;64374;51.482;7.408;2023-02-19T14:12:03;12.80;99.90
4356;DHT22;64374;51.482;7.408;2023-02-19T14:14:35;12.90;99.90
4356;DHT22;64374;51.482;7.408;2023-02-19T14:17:25;12.50;99.90
4356;DHT22;64374;51.482;7.408;2023-02-19T14:19:56;12.60;99.90
4356;DHT22;64374;51.482;7.408;2023-02-19T14:22:57;12.70;99.90
4356;DHT22;64374;51.482;7.408;2023-02-19T14:25:32;12.80;99.90
4356;DHT22;64374;51.482;7.408;2023-02-19T14:28:05;12.80;99.90
4356;DHT22;64374;51.482;7.408;2023-02-19T14:30:47;12.20;99.90
4356;DHT22;64374;51.482;7.408;2023-02-19T14:33:18;12.10;99.90
4356;DHT22;64374;51.482;7.408;2023-02-19T14:35:52;11.80;99.90
4356;DHT22;64374;51.482;7.408;2023-02-19T14:38:24;12.00;99.90
4356;DHT22;64374;51.482;7.408;2023-02-19T14:40:54;12.10;99.90
4356;DHT22;64374;51.482;7.408;2023-02-19T14:43:25;12.20;99.90
4356;DHT22;64374;51.482;7.408;2023-02-19T14:45:59;12.20;99.90
4356;DHT22;64374;51.482;7.408;2023-02-19T14:48:31;12.40;99.90
4356;DHT22;64374;51.482;7.408;2023-02-19T14:51:03;12.60;99.90
4356;DHT22;64374;51.482;7.408;2023-02-19T14:53:37;12.60;99.90
4356;DHT22;64374;51.482;7.408;2023-02-19T14:56:18;12.70;99.90
4356;DHT22;64374;51.482;7.408;2023-02-19T14:59:14;12.70;99.90
4356;DHT22;64374;51.482;7.408;2023-02-19T15:01:53;12.80;99.90
4356;DHT22;64374;51.482;7.408;2023-02-19T15:04:25;13.00;99.90
4356;DHT22;64374;51.482;7.408;2023-02-19T15:06:55;13.00;99.90
4356;DHT22;64374;51.482;7.408;2023-02-19T15:09:30;12.90;99.90
4356;DHT22;64374;51.482;7.408;2023-02-19T15:11:59;12.90;99.90
4356;DHT22;64374;51.482;7.408;2023-02-19T15:14:32;13.10;99.90
4356;DHT22;64374;51.482;7.408;2023-02-19T15:17:25;13.00;99.90
4356;DHT22;64374;51.482;7.408;2023-02-19T15:19:55;12.80;99.90
4356;DHT22;64374;51.482;7.408;2023-02-19T15:22:27;13.00;99.90
4356;DHT22;64374;51.482;7.408;2023-02-19T15:24:59;13.00;99.90
4356;DHT22;64374;51.482;7.408;2023-02-19T15:27:28;13.00;99.90
4356;DHT22;64374;51.482;7.408;2023-02-19T15:29:58;13.00;99.90
4356;DHT22;64374;51.482;7.408;2023-02-19T15:32:27;13.00;99.90
4356;DHT22;64374;51.482;7.408;2023-02-19T15:34:58;13.10;99.90
4356;DHT22;64374;51.482;7.408;2023-02-19T15:37:31;12.90;99.90
4356;DHT22;64374;51.482;7.408;2023-02-19T15:40:04;12.90;99.90
4356;DHT22;64374;51.482;7.408;2023-02-19T15:42:34;12.90;99.90
4356;DHT22;64374;51.482;7.408;2023-02-19T15:45:12;13.00;99.90
4356;DHT22;64374;51.482;7.408;2023-02-19T15:47:48;13.10;99.90
4356;DHT22;64374;51.482;7.408;2023-02-19T15:50:22;13.10;99.90
4356;DHT22;64374;51.482;7.408;2023-02-19T15:52:57;13.20;99.90
4356;DHT22;64374;51.482;7.408;2023-02-19T15:55:32;13.00;99.90
4356;DHT22;64374;51.482;7.408;2023-02-19T15:58:07;12.90;99.90
4356;DHT22;64374;51.482;7.408;2023-02-19T16:00:44;12.90;99.90
4356;DHT22;64374;51.482;7.408;2023-02-19T16:03:17;13.00;99.90
4356;DHT22;64374;51.482;7.408;2023-02-19T16:05:57;12.70;99.90
4356;DHT22;64374;51.482;7.408;2023-02-19T16:08:29;12.60;99.90
4356;DHT22;64374;51.482;7.408;2023-02-19T16:11:00;12.60;99.90
4356;DHT22;64374;51.482;7.408;2023-02-19T16:13:30;12.40;99.90
4356;DHT22;64374;51.482;7.408;2023-02-19T16:16:05;12.40;99.90
4356;DHT22;64374;51.482;7.408;2023-02-19T16:18:48;12.10;99.90
4356;DHT22;64374;51.482;7.408;2023-02-19T16:21:21;12.30;99.90
4356;DHT22;64374;51.482;7.408;2023-02-19T16:23:52;12.30;99.90
4356;DHT22;64374;51.482;7.408;2023-02-19T16:26:23;12.20;99.90
4356;DHT22;64374;51.482;7.408;2023-02-19T16:28:52;12.30;99.90
4356;DHT22;64374;51.482;7.408;2023-02-19T16:31:22;12.20;99.90
4356;DHT22;64374;51.482;7.408;2023-02-19T16:33:51;12.10;99.90